METAR* REPORTS - Stations within 60 miles

(*Meteorological Terminal Aviation Routine weather report)

 

KRDG - Reading, Pennsylvania, USA
Distance from station: SE 19mi, 31km
Updated: Fri, 23-Feb-2018 2:54am EST
Overcast
Overcast
 Wind from E
Wind: E 6 mph , 9 km/h
Temperature: 37°F , 3°C
Wind Chill: 32°F , 0°C
Dew Point: 37°F , 3°C
Humidity: 100%
Barometer: 30.60 inHg , 1036.2 hPa
Clouds: Overcast
Visibility: 10 miles , 16 km
Cloud details: Overcast 1000 ft
2018/02/23 07:54 KRDG 230754Z 09005KT 10SM OVC010 03/03 A3060 RMK AO2 SLP369 T00330028
KLNS - Lancaster, Pennsylvania, USA
Distance from station: S 33mi, 53km
Updated: Fri, 23-Feb-2018 2:53am EST
Light rain, Mist, Overcast
Light rain, Mist, Overcast
 Wind from E
Wind: E 10 mph , 17 km/h
Temperature: 37°F , 3°C
Wind Chill: 30°F , -1°C
Dew Point: 36°F , 2°C
Humidity: 93%
Barometer: 30.59 inHg , 1035.9 hPa
Summary: Light rain, Mist
Clouds: Overcast
Visibility: 2 1/2 miles , 2 km
Cloud details: Overcast 600 ft
2018/02/23 07:53 KLNS 230753Z AUTO 09009KT 2 1/2SM -RA BR OVC006 03/02 A3059 RMK AO2 RAB53 PRESFR SLP363 P0000 T00330022
 
KSEG - Selinsgrove, Pennsylvania, USA
Distance from station: WNW 39mi, 62km
Updated: Fri, 23-Feb-2018 2:53am EST
Overcast
Overcast
 Wind from S
Wind: S 3 mph , 6 km/h
Temperature: 37°F , 3°C
Dew Point: 34°F , 1°C
Humidity: 87%
Barometer: 30.60 inHg , 1036.2 hPa
Clouds: Overcast
Visibility: 10 miles , 16 km
Cloud details: Overcast 1400 ft
2018/02/23 07:53 KSEG 230753Z AUTO 17003KT 10SM OVC014 03/01 A3060 RMK AO2 SLP367 T00330011
KABE - Allentown, Pennsylvania, USA
Distance from station: E 39mi, 63km
Updated: Fri, 23-Feb-2018 3:11am EST
Overcast
Overcast
 Wind from ENE
Wind: ENE 8 mph , 13 km/h
Temperature: 37°F , 3°C
Wind Chill: 31°F , -1°C
Dew Point: 32°F , 0°C
Humidity: 81%
Barometer: 30.61 inHg , 1036.6 hPa
Clouds: Overcast
Visibility: 10 miles , 16 km
Cloud details: Overcast 900 ft
2018/02/23 08:11 KABE 230811Z 06007KT 10SM OVC009 03/00 A3061 RMK AO2 T00280000
 
KMDT - Middletown, Pennsylvania, USA
Distance from station: SW 40mi, 65km
Updated: Fri, 23-Feb-2018 2:56am EST
Light rain, Mist, Overcast
Light rain, Mist, Overcast
 Wind from ESE
Wind: ESE 7 mph , 11 km/h
Temperature: 37°F , 3°C
Wind Chill: 32°F , 0°C
Dew Point: 36°F , 2°C
Humidity: 93%
Barometer: 30.59 inHg , 1035.9 hPa
Summary: Light rain, Mist
Clouds: Overcast
Visibility: 3 miles , 5 km
Cloud details: Overcast 800 ft
2018/02/23 07:56 KMDT 230756Z 12006KT 3SM -RA BR OVC008 03/02 A3059 RMK AO2 RAB53 CIG 006V012 SLP363 P0000 T00330022
KPTW - Pottstown, Pennsylvania, USA
Distance from station: SE 42mi, 67km
Updated: Fri, 23-Feb-2018 2:54am EST
Overcast
Overcast
 Wind from NE
Wind: NE 7 mph , 11 km/h
Temperature: 37°F , 3°C
Wind Chill: 32°F , 0°C
Dew Point: 36°F , 2°C
Humidity: 93%
Barometer: 30.64 inHg , 1037.6 hPa
Clouds: Overcast
Visibility: 7 miles , 11 km
Cloud details: Overcast 1100 ft
2018/02/23 07:54 KPTW 230754Z AUTO 05006KT 7SM OVC011 03/02 A3064 RMK AO2 SLP375 T00280017
 
KCXY - Harrisburg, Pennsylvania, USA
Distance from station: SW 43mi, 69km
Updated: Fri, 23-Feb-2018 3:12am EST
Mist, Overcast
Mist, Overcast
 Wind from ESE
Wind: ESE 9 mph , 15 km/h
Temperature: 39°F , 4°C
Wind Chill: 33°F , 1°C
Dew Point: 37°F , 3°C
Humidity: 93%
Barometer: 30.59 inHg , 1035.9 hPa
Summary: Mist
Clouds: Overcast
Visibility: 3 miles , 5 km
Cloud details: Overcast 700 ft
2018/02/23 08:12 KCXY 230812Z AUTO 11008KT 3SM BR OVC007 04/03 A3059 RMK AO2 CIG 005V012 T00390028
KUKT - Quakertown Arp, Pennsylvania, USA
Distance from station: ESE 44mi, 70km
Updated: Fri, 23-Feb-2018 3:15am EST

 Wind from varies
Wind: varies 3 mph , 6 km/h, Gust: 13 mph , 20 km/h
Temperature: 36°F , 2°C
Dew Point: 36°F , 2°C
Humidity: 100%
Barometer: 30.61 inHg , 1036.6 hPa
Visibility: 10 miles , 16 km
2018/02/23 08:15 KUKT 230815Z AUTO VRB03G11KT 10SM 02/02 A3061 RMK A01
 
KMQS - Coatesville, Pennsylvania, USA
Distance from station: SSE 45mi, 72km
Updated: Fri, 23-Feb-2018 3:15am EST
Light, Overcast
Light, Overcast
 Wind from E
Wind: E 10 mph , 17 km/h
Temperature: 36°F , 2°C
Wind Chill: 29°F , -2°C
Dew Point: 36°F , 2°C
Humidity: 100%
Barometer: 30.59 inHg , 1035.9 hPa
Summary: Light
Clouds: Overcast
Visibility: 1 3/4 miles , 5 km
Cloud details: Overcast 300 ft
2018/02/23 08:15 KMQS 230815Z AUTO 09009KT 1 3/4SM -UP OVC003 02/02 A3059 RMK AO2
KMPO - Mt. Pocono, Pennsylvania, USA
Distance from station: NE 57mi, 92km
Updated: Fri, 23-Feb-2018 2:53am EST
Freezing fog, Overcast
Freezing fog, Overcast
 Wind from E
Wind: E 9 mph , 15 km/h
Temperature: 28°F , -2°C
Wind Chill: 19°F , -7°C
Dew Point: 28°F , -2°C
Humidity: 100%
Barometer: 30.54 inHg , 1034.2 hPa
Summary: Freezing Fog
Clouds: Overcast
Visibility: 1/2 mile , 2 km
Cloud details: Overcast 200 ft
2018/02/23 07:53 KMPO 230753Z AUTO 10008KT 1/2SM FZFG VV002 M02/M02 A3054 RMK AO2 SLP365 I1000 T10171017
 
KAVP - Avoca/Wilkes B., Pennsylvania, USA
Distance from station: NNE 58mi, 93km
Updated: Fri, 23-Feb-2018 2:54am EST
Overcast
Overcast
 Wind from varies
Wind: varies 5 mph , 7 km/h
Temperature: 36°F , 2°C
Wind Chill: 32°F , 0°C
Dew Point: 30°F , -1°C
Humidity: 81%
Barometer: 30.57 inHg , 1035.2 hPa
Clouds: Overcast
Visibility: 10 miles , 16 km
Cloud details: Mostly Cloudy 1800 ft
Overcast 3200 ft
2018/02/23 07:54 KAVP 230754Z VRB04KT 10SM BKN018 OVC032 02/M01 A3057 RMK AO2 SLP358 T00221006
KTHV - York, Pennsylvania, USA
Distance from station: SW 59mi, 94km
Updated: Fri, 23-Feb-2018 3:16am EST
Mist, Overcast
Mist, Overcast
 Wind from ENE
Wind: ENE 5 mph , 7 km/h
Temperature: 37°F , 3°C
Wind Chill: 33°F , 1°C
Dew Point: 37°F , 3°C
Humidity: 100%
Barometer: 30.58 inHg , 1035.6 hPa
Summary: Mist
Clouds: Overcast
Visibility: 5 miles , 8 km
Cloud details: Overcast 500 ft
2018/02/23 08:16 KTHV 230816Z AUTO 07004KT 5SM BR OVC005 03/03 A3058 RMK AO2 RAE09 CIG 004V009 P0000 T00330033
 
KDYL - Doylestown, Pennsylvania, USA
Distance from station: ESE 59mi, 95km
Updated: Fri, 23-Feb-2018 2:54am EST
Overcast
Overcast
 Wind from varies
Wind: varies 6 mph , 9 km/h
Temperature: 37°F , 3°C
Wind Chill: 32°F , 0°C
Dew Point: 36°F , 2°C
Humidity: 93%
Barometer: 30.61 inHg , 1036.6 hPa
Clouds: Overcast
Visibility: 10 miles , 16 km
Cloud details: Overcast 700 ft
2018/02/23 07:54 KDYL 230754Z AUTO VRB05KT 10SM OVC007 03/02 A3061 RMK AO2 SLP371 T00280017
KIPT - Williamsport, Pennsylvania, USA
Distance from station: NW 60mi, 96km
Updated: Fri, 23-Feb-2018 2:54am EST
Overcast
Overcast
 Wind from E
Wind: E 13 mph , 20 km/h, Gust: 22 mph , 35 km/h
Temperature: 37°F , 3°C
Wind Chill: 29°F , -2°C
Dew Point: 36°F , 2°C
Humidity: 93%
Barometer: 30.57 inHg , 1035.2 hPa
Clouds: Overcast
Visibility: 10 miles , 16 km
Cloud details: Overcast 1200 ft
2018/02/23 07:54 KIPT 230754Z AUTO 08011G19KT 10SM OVC012 03/02 A3057 RMK AO2 SLP355 T00330017